sensor_id;sensor_type;location;lat;lon;timestamp;pressure;altitude;pressure_sealevel;temperature;humidity
68329;BME280;55182;56.864;60.554;2023-07-02T00:01:34;72172.06;;;-143.60;62.12
68329;BME280;55182;56.864;60.554;2023-07-02T00:04:00;72174.06;;;-143.60;62.01
68329;BME280;55182;56.864;60.554;2023-07-02T00:06:25;72178.06;;;-143.60;61.91
68329;BME280;55182;56.864;60.554;2023-07-02T00:08:51;72174.06;;;-143.60;62.07
68329;BME280;55182;56.864;60.554;2023-07-02T00:11:16;72182.09;;;-143.60;62.22
68329;BME280;55182;56.864;60.554;2023-07-02T00:13:42;72190.13;;;-143.60;62.29
68329;BME280;55182;56.864;60.554;2023-07-02T00:16:07;72188.13;;;-143.60;62.25
68329;BME280;55182;56.864;60.554;2023-07-02T00:18:32;72186.09;;;-143.60;62.07
68329;BME280;55182;56.864;60.554;2023-07-02T00:20:58;72190.13;;;-143.60;62.12
68329;BME280;55182;56.864;60.554;2023-07-02T00:23:23;72184.09;;;-143.60;62.04
68329;BME280;55182;56.864;60.554;2023-07-02T00:25:49;72170.03;;;-143.60;61.42
68329;BME280;55182;56.864;60.554;2023-07-02T00:28:14;72160.00;;;-143.60;61.20
68329;BME280;55182;56.864;60.554;2023-07-02T00:30:40;72158.00;;;-143.60;60.92
68329;BME280;55182;56.864;60.554;2023-07-02T00:33:05;72149.97;;;-143.60;60.91
68329;BME280;55182;56.864;60.554;2023-07-02T00:35:31;72143.94;;;-143.60;60.28
68329;BME280;55182;56.864;60.554;2023-07-02T00:37:56;72147.97;;;-143.60;60.30
68329;BME280;55182;56.864;60.554;2023-07-02T00:40:22;72145.97;;;-143.60;60.13
68329;BME280;55182;56.864;60.554;2023-07-02T00:42:47;72141.94;;;-143.60;60.13
68329;BME280;55182;56.864;60.554;2023-07-02T00:45:12;72139.94;;;-143.60;59.85
68329;BME280;55182;56.864;60.554;2023-07-02T00:47:38;72141.94;;;-143.60;59.99
68329;BME280;55182;56.864;60.554;2023-07-02T00:50:03;72133.91;;;-143.60;59.79
68329;BME280;55182;56.864;60.554;2023-07-02T00:52:30;72129.91;;;-143.60;59.50
68329;BME280;55182;56.864;60.554;2023-07-02T00:54:55;72125.88;;;-143.60;59.57
68329;BME280;55182;56.864;60.554;2023-07-02T00:57:20;72103.81;;;-143.60;59.06
68329;BME280;55182;56.864;60.554;2023-07-02T00:59:46;72101.78;;;-143.60;58.94
68329;BME280;55182;56.864;60.554;2023-07-02T01:02:12;72093.75;;;-143.60;58.73
68329;BME280;55182;56.864;60.554;2023-07-02T01:04:37;72099.78;;;-143.60;58.75
68329;BME280;55182;56.864;60.554;2023-07-02T01:07:03;72095.78;;;-143.60;58.78
68329;BME280;55182;56.864;60.554;2023-07-02T01:09:28;72085.72;;;-143.60;58.25
68329;BME280;55182;56.864;60.554;2023-07-02T01:11:55;72075.69;;;-143.60;58.17
68329;BME280;55182;56.864;60.554;2023-07-02T01:16:47;72069.69;;;-143.60;58.14
68329;BME280;55182;56.864;60.554;2023-07-02T01:19:15;72065.66;;;-143.60;57.87
68329;BME280;55182;56.864;60.554;2023-07-02T01:21:43;72065.66;;;-143.60;58.10
68329;BME280;55182;56.864;60.554;2023-07-02T01:24:08;72053.63;;;-143.60;57.57
68329;BME280;55182;56.864;60.554;2023-07-02T01:26:34;72049.59;;;-143.60;58.03
68329;BME280;55182;56.864;60.554;2023-07-02T01:29:19;72047.59;;;-143.60;58.02
68329;BME280;55182;56.864;60.554;2023-07-02T01:31:44;72053.63;;;-143.60;58.13
68329;BME280;55182;56.864;60.554;2023-07-02T01:34:10;72061.66;;;-143.60;58.56
68329;BME280;55182;56.864;60.554;2023-07-02T01:36:36;72073.69;;;-143.60;59.04
68329;BME280;55182;56.864;60.554;2023-07-02T01:39:01;72077.69;;;-143.60;59.09
68329;BME280;55182;56.864;60.554;2023-07-02T01:41:27;72083.72;;;-143.60;59.52
68329;BME280;55182;56.864;60.554;2023-07-02T01:43:52;72085.72;;;-143.60;59.78
68329;BME280;55182;56.864;60.554;2023-07-02T01:46:18;72097.78;;;-143.60;59.69
68329;BME280;55182;56.864;60.554;2023-07-02T01:48:44;72087.75;;;-143.60;60.10
68329;BME280;55182;56.864;60.554;2023-07-02T01:51:09;72085.72;;;-143.60;59.90
68329;BME280;55182;56.864;60.554;2023-07-02T01:53:35;72089.75;;;-143.60;60.14
68329;BME280;55182;56.864;60.554;2023-07-02T01:56:01;72089.75;;;-143.60;59.90
68329;BME280;55182;56.864;60.554;2023-07-02T01:58:26;72085.72;;;-143.60;60.24
68329;BME280;55182;56.864;60.554;2023-07-02T02:00:52;72075.69;;;-143.60;59.86
68329;BME280;55182;56.864;60.554;2023-07-02T02:03:17;72073.69;;;-143.60;59.68
68329;BME280;55182;56.864;60.554;2023-07-02T02:05:43;72065.66;;;-143.60;59.88
68329;BME280;55182;56.864;60.554;2023-07-02T02:08:08;72053.63;;;-143.60;59.41
68329;BME280;55182;56.864;60.554;2023-07-02T02:10:34;72037.56;;;-143.60;58.60
68329;BME280;55182;56.864;60.554;2023-07-02T02:12:59;72011.47;;;-143.60;58.18
68329;BME280;55182;56.864;60.554;2023-07-02T02:15:25;71999.41;;;-143.60;57.77
68329;BME280;55182;56.864;60.554;2023-07-02T02:17:50;71993.38;;;-143.60;57.80
68329;BME280;55182;56.864;60.554;2023-07-02T02:20:15;71985.38;;;-143.60;58.22
68329;BME280;55182;56.864;60.554;2023-07-02T02:22:41;71981.34;;;-143.60;57.90
68329;BME280;55182;56.864;60.554;2023-07-02T02:25:07;71979.34;;;-143.60;58.05
68329;BME280;55182;56.864;60.554;2023-07-02T02:27:32;71971.31;;;-143.60;57.59
68329;BME280;55182;56.864;60.554;2023-07-02T02:29:59;71961.28;;;-143.60;57.72
68329;BME280;55182;56.864;60.554;2023-07-02T02:32:24;71949.22;;;-143.60;57.00
68329;BME280;55182;56.864;60.554;2023-07-02T02:34:50;71941.19;;;-143.60;56.87
68329;BME280;55182;56.864;60.554;2023-07-02T02:37:15;71927.16;;;-143.60;56.85
68329;BME280;55182;56.864;60.554;2023-07-02T02:39:42;71919.13;;;-143.60;56.69
68329;BME280;55182;56.864;60.554;2023-07-02T02:42:07;71917.13;;;-143.60;56.10
68329;BME280;55182;56.864;60.554;2023-07-02T02:44:33;71903.06;;;-143.60;56.29
68329;BME280;55182;56.864;60.554;2023-07-02T02:46:59;71901.06;;;-143.60;56.16
68329;BME280;55182;56.864;60.554;2023-07-02T02:49:25;71901.06;;;-143.60;56.62
68329;BME280;55182;56.864;60.554;2023-07-02T02:51:50;71899.03;;;-143.60;56.00
68329;BME280;55182;56.864;60.554;2023-07-02T02:54:15;71889.00;;;-143.60;56.53
68329;BME280;55182;56.864;60.554;2023-07-02T02:56:41;71887.00;;;-143.60;55.35
68329;BME280;55182;56.864;60.554;2023-07-02T02:59:07;71878.97;;;-143.60;55.25
68329;BME280;55182;56.864;60.554;2023-07-02T03:01:33;71868.94;;;-143.60;54.93
68329;BME280;55182;56.864;60.554;2023-07-02T03:03:58;71856.88;;;-143.60;54.56
68329;BME280;55182;56.864;60.554;2023-07-02T03:06:24;71848.88;;;-143.60;55.01
68329;BME280;55182;56.864;60.554;2023-07-02T03:08:49;71846.84;;;-143.60;54.02
68329;BME280;55182;56.864;60.554;2023-07-02T03:11:15;71830.78;;;-143.60;53.85
68329;BME280;55182;56.864;60.554;2023-07-02T03:13:40;71828.78;;;-143.60;54.66
68329;BME280;55182;56.864;60.554;2023-07-02T03:16:06;71816.75;;;-143.60;54.08
68329;BME280;55182;56.864;60.554;2023-07-02T03:18:32;71812.72;;;-143.60;54.24
68329;BME280;55182;56.864;60.554;2023-07-02T03:20:58;71794.66;;;-143.60;54.39
68329;BME280;55182;56.864;60.554;2023-07-02T03:23:27;71782.63;;;-143.60;53.64
68329;BME280;55182;56.864;60.554;2023-07-02T03:25:52;71772.59;;;-143.60;52.83
68329;BME280;55182;56.864;60.554;2023-07-02T03:28:18;71758.53;;;-143.60;52.88
68329;BME280;55182;56.864;60.554;2023-07-02T03:30:43;71744.47;;;-143.60;51.65
68329;BME280;55182;56.864;60.554;2023-07-02T03:33:09;71722.41;;;-143.60;51.19
68329;BME280;55182;56.864;60.554;2023-07-02T03:35:34;71712.38;;;-143.60;50.68
68329;BME280;55182;56.864;60.554;2023-07-02T03:38:00;71690.28;;;-143.60;50.04
68329;BME280;55182;56.864;60.554;2023-07-02T03:40:25;71672.22;;;-143.60;49.48
68329;BME280;55182;56.864;60.554;2023-07-02T03:42:51;71670.22;;;-143.60;49.49
68329;BME280;55182;56.864;60.554;2023-07-02T03:45:16;71668.22;;;-143.60;49.94
68329;BME280;55182;56.864;60.554;2023-07-02T03:47:42;71666.19;;;-143.60;49.81
68329;BME280;55182;56.864;60.554;2023-07-02T03:50:08;71662.19;;;-143.60;49.97
68329;BME280;55182;56.864;60.554;2023-07-02T03:52:34;71670.22;;;-143.60;48.82
68329;BME280;55182;56.864;60.554;2023-07-02T03:54:59;71668.22;;;-143.60;49.34
68329;BME280;55182;56.864;60.554;2023-07-02T03:57:24;71666.19;;;-143.60;49.95
68329;BME280;55182;56.864;60.554;2023-07-02T03:59:50;71668.22;;;-143.60;48.94
68329;BME280;55182;56.864;60.554;2023-07-02T04:02:15;71654.16;;;-143.60;48.72
68329;BME280;55182;56.864;60.554;2023-07-02T04:04:41;71646.13;;;-143.60;49.17
68329;BME280;55182;56.864;60.554;2023-07-02T04:07:06;71636.09;;;-143.60;49.16
68329;BME280;55182;56.864;60.554;2023-07-02T04:09:32;71622.03;;;-143.60;48.63
68329;BME280;55182;56.864;60.554;2023-07-02T04:11:59;71601.97;;;-143.60;48.49
68329;BME280;55182;56.864;60.554;2023-07-02T04:14:24;71595.94;;;-143.60;48.22
68329;BME280;55182;56.864;60.554;2023-07-02T04:16:50;71577.88;;;-143.60;47.80
68329;BME280;55182;56.864;60.554;2023-07-02T04:19:15;71583.91;;;-143.60;47.79
68329;BME280;55182;56.864;60.554;2023-07-02T04:21:41;71597.94;;;-143.60;47.38
68329;BME280;55182;56.864;60.554;2023-07-02T04:24:06;71587.91;;;-143.60;46.43
68329;BME280;55182;56.864;60.554;2023-07-02T04:26:31;71573.88;;;-143.60;45.77
68329;BME280;55182;56.864;60.554;2023-07-02T04:28:57;71571.88;;;-143.60;46.25
68329;BME280;55182;56.864;60.554;2023-07-02T04:31:22;71567.84;;;-143.60;46.24
68329;BME280;55182;56.864;60.554;2023-07-02T04:33:48;71555.81;;;-143.60;46.04
68329;BME280;55182;56.864;60.554;2023-07-02T04:36:13;71547.78;;;-143.60;46.43
68329;BME280;55182;56.864;60.554;2023-07-02T04:38:38;71543.75;;;-143.60;45.89
68329;BME280;55182;56.864;60.554;2023-07-02T04:41:04;71531.72;;;-143.60;44.78
68329;BME280;55182;56.864;60.554;2023-07-02T04:43:29;71511.66;;;-143.60;44.94
68329;BME280;55182;56.864;60.554;2023-07-02T04:45:55;71499.59;;;-143.60;43.82
68329;BME280;55182;56.864;60.554;2023-07-02T04:48:21;71491.56;;;-143.60;43.17
68329;BME280;55182;56.864;60.554;2023-07-02T04:50:46;71481.53;;;-143.60;43.07
68329;BME280;55182;56.864;60.554;2023-07-02T04:53:11;71469.50;;;-143.60;42.69
68329;BME280;55182;56.864;60.554;2023-07-02T04:55:37;71451.44;;;-143.60;42.22
68329;BME280;55182;56.864;60.554;2023-07-02T04:58:02;71435.38;;;-143.60;41.17
68329;BME280;55182;56.864;60.554;2023-07-02T05:00:28;71411.28;;;-143.60;39.33
68329;BME280;55182;56.864;60.554;2023-07-02T05:02:54;71391.22;;;-143.60;39.17
68329;BME280;55182;56.864;60.554;2023-07-02T05:05:19;71371.16;;;-143.60;39.24
68329;BME280;55182;56.864;60.554;2023-07-02T05:07:44;71367.13;;;-143.60;39.19
68329;BME280;55182;56.864;60.554;2023-07-02T05:10:10;71355.09;;;-143.60;39.27
68329;BME280;55182;56.864;60.554;2023-07-02T05:12:35;71339.03;;;-143.60;38.87
68329;BME280;55182;56.864;60.554;2023-07-02T05:15:01;71331.00;;;-143.60;39.12
68329;BME280;55182;56.864;60.554;2023-07-02T05:17:26;71320.97;;;-143.60;39.88
68329;BME280;55182;56.864;60.554;2023-07-02T05:19:52;71314.94;;;-143.60;38.87
68329;BME280;55182;56.864;60.554;2023-07-02T05:22:17;71298.91;;;-143.60;37.43
68329;BME280;55182;56.864;60.554;2023-07-02T05:24:43;71286.84;;;-143.60;38.93
68329;BME280;55182;56.864;60.554;2023-07-02T05:27:08;71270.78;;;-143.60;38.03
68329;BME280;55182;56.864;60.554;2023-07-02T05:29:34;71250.72;;;-143.60;37.99
68329;BME280;55182;56.864;60.554;2023-07-02T05:31:59;71222.63;;;-143.60;37.83
68329;BME280;55182;56.864;60.554;2023-07-02T05:34:24;71194.53;;;-143.60;37.18
68329;BME280;55182;56.864;60.554;2023-07-02T05:36:50;71166.44;;;-143.60;37.35
68329;BME280;55182;56.864;60.554;2023-07-02T05:39:15;71138.34;;;-143.60;37.06
68329;BME280;55182;56.864;60.554;2023-07-02T05:41:41;71118.25;;;-143.60;35.18
68329;BME280;55182;56.864;60.554;2023-07-02T05:44:06;71104.22;;;-143.60;34.95
68329;BME280;55182;56.864;60.554;2023-07-02T05:46:32;71102.22;;;-143.60;34.96
68329;BME280;55182;56.864;60.554;2023-07-02T05:48:57;71090.16;;;-143.60;35.11
68329;BME280;55182;56.864;60.554;2023-07-02T05:51:23;71082.13;;;-143.60;35.12
68329;BME280;55182;56.864;60.554;2023-07-02T05:53:49;71074.09;;;-143.60;34.93
68329;BME280;55182;56.864;60.554;2023-07-02T05:56:14;71086.16;;;-143.60;34.17
68329;BME280;55182;56.864;60.554;2023-07-02T05:58:40;71086.16;;;-143.60;34.63
68329;BME280;55182;56.864;60.554;2023-07-02T06:01:05;71086.16;;;-143.60;34.43
68329;BME280;55182;56.864;60.554;2023-07-02T06:03:31;71080.13;;;-143.60;34.47
68329;BME280;55182;56.864;60.554;2023-07-02T06:05:56;71086.16;;;-143.60;34.60
68329;BME280;55182;56.864;60.554;2023-07-02T06:08:22;71064.06;;;-143.60;34.47
68329;BME280;55182;56.864;60.554;2023-07-02T06:10:47;71054.03;;;-143.60;34.35
68329;BME280;55182;56.864;60.554;2023-07-02T06:13:13;71033.97;;;-143.60;33.32
68329;BME280;55182;56.864;60.554;2023-07-02T06:15:39;71017.91;;;-143.60;33.30
68329;BME280;55182;56.864;60.554;2023-07-02T06:18:04;70991.81;;;-143.60;32.11
68329;BME280;55182;56.864;60.554;2023-07-02T06:20:30;70977.78;;;-143.60;31.56
68329;BME280;55182;56.864;60.554;2023-07-02T06:22:55;70963.72;;;-143.60;31.75
68329;BME280;55182;56.864;60.554;2023-07-02T06:25:21;70945.66;;;-143.60;32.02
68329;BME280;55182;56.864;60.554;2023-07-02T06:27:47;70929.63;;;-143.60;31.85
68329;BME280;55182;56.864;60.554;2023-07-02T06:30:14;70909.53;;;-143.60;31.58
68329;BME280;55182;56.864;60.554;2023-07-02T06:32:39;70889.47;;;-143.60;31.17
68329;BME280;55182;56.864;60.554;2023-07-02T06:35:05;70885.47;;;-143.60;30.83
68329;BME280;55182;56.864;60.554;2023-07-02T06:37:30;70875.44;;;-143.60;30.95
68329;BME280;55182;56.864;60.554;2023-07-02T06:39:56;70871.41;;;-143.60;31.50
68329;BME280;55182;56.864;60.554;2023-07-02T06:42:21;70869.41;;;-143.60;31.30
68329;BME280;55182;56.864;60.554;2023-07-02T06:44:46;70865.41;;;-143.60;31.40
68329;BME280;55182;56.864;60.554;2023-07-02T06:47:12;70861.38;;;-143.60;30.96
68329;BME280;55182;56.864;60.554;2023-07-02T06:49:37;70873.41;;;-143.60;30.96
68329;BME280;55182;56.864;60.554;2023-07-02T06:52:03;70889.47;;;-143.60;30.71
68329;BME280;55182;56.864;60.554;2023-07-02T06:54:28;70907.53;;;-143.60;30.64
68329;BME280;55182;56.864;60.554;2023-07-02T06:56:54;70933.63;;;-143.60;30.70
68329;BME280;55182;56.864;60.554;2023-07-02T06:59:20;70941.66;;;-143.60;30.97
68329;BME280;55182;56.864;60.554;2023-07-02T07:01:45;70965.75;;;-143.60;31.47
68329;BME280;55182;56.864;60.554;2023-07-02T07:04:10;70967.75;;;-143.60;31.71
68329;BME280;55182;56.864;60.554;2023-07-02T07:06:36;70969.75;;;-143.60;31.19
68329;BME280;55182;56.864;60.554;2023-07-02T07:09:01;70975.78;;;-143.60;31.62
68329;BME280;55182;56.864;60.554;2023-07-02T07:11:27;70967.75;;;-143.60;32.22
68329;BME280;55182;56.864;60.554;2023-07-02T07:13:52;70965.75;;;-143.60;31.97
68329;BME280;55182;56.864;60.554;2023-07-02T07:16:18;70951.69;;;-143.60;32.40
68329;BME280;55182;56.864;60.554;2023-07-02T07:18:43;70947.69;;;-143.60;32.52
68329;BME280;55182;56.864;60.554;2023-07-02T07:21:09;70941.66;;;-143.60;32.60
68329;BME280;55182;56.864;60.554;2023-07-02T07:23:34;70941.66;;;-143.60;32.24
68329;BME280;55182;56.864;60.554;2023-07-02T07:26:00;70937.63;;;-143.60;32.88
68329;BME280;55182;56.864;60.554;2023-07-02T07:28:25;70919.56;;;-143.60;33.22
68329;BME280;55182;56.864;60.554;2023-07-02T07:30:51;70941.66;;;-143.60;32.66
68329;BME280;55182;56.864;60.554;2023-07-02T07:33:16;70947.69;;;-143.60;32.72
68329;BME280;55182;56.864;60.554;2023-07-02T07:35:41;70951.69;;;-143.60;32.69
68329;BME280;55182;56.864;60.554;2023-07-02T07:38:07;70933.63;;;-143.60;32.89
68329;BME280;55182;56.864;60.554;2023-07-02T07:40:33;70925.59;;;-143.60;32.65
68329;BME280;55182;56.864;60.554;2023-07-02T07:42:58;70905.53;;;-143.60;32.60
68329;BME280;55182;56.864;60.554;2023-07-02T07:45:24;70897.50;;;-143.60;32.30
68329;BME280;55182;56.864;60.554;2023-07-02T07:47:49;70893.50;;;-143.60;31.53
68329;BME280;55182;56.864;60.554;2023-07-02T07:50:14;70883.47;;;-143.60;31.78
68329;BME280;55182;56.864;60.554;2023-07-02T07:52:40;70881.44;;;-143.60;31.83
68329;BME280;55182;56.864;60.554;2023-07-02T07:55:06;70877.44;;;-143.60;31.17
68329;BME280;55182;56.864;60.554;2023-07-02T07:57:34;70861.38;;;-143.60;31.28
68329;BME280;55182;56.864;60.554;2023-07-02T07:59:59;70845.31;;;-143.60;30.87
68329;BME280;55182;56.864;60.554;2023-07-02T08:02:25;70825.25;;;-143.60;30.99
68329;BME280;55182;56.864;60.554;2023-07-02T08:04:50;70817.22;;;-143.60;30.46
68329;BME280;55182;56.864;60.554;2023-07-02T08:07:16;70807.19;;;-143.60;29.73
68329;BME280;55182;56.864;60.554;2023-07-02T08:09:41;70825.25;;;-143.60;29.20
68329;BME280;55182;56.864;60.554;2023-07-02T08:12:07;70835.28;;;-143.60;28.95
68329;BME280;55182;56.864;60.554;2023-07-02T08:14:33;70859.38;;;-143.60;29.46
68329;BME280;55182;56.864;60.554;2023-07-02T08:16:58;70861.38;;;-143.60;29.91
68329;BME280;55182;56.864;60.554;2023-07-02T08:19:24;70855.34;;;-143.60;29.46
68329;BME280;55182;56.864;60.554;2023-07-02T08:21:50;70859.38;;;-143.60;29.31
68329;BME280;55182;56.864;60.554;2023-07-02T08:24:15;70889.47;;;-143.60;29.31
68329;BME280;55182;56.864;60.554;2023-07-02T08:26:41;70899.50;;;-143.60;29.79
68329;BME280;55182;56.864;60.554;2023-07-02T08:29:06;70909.53;;;-143.60;29.84
68329;BME280;55182;56.864;60.554;2023-07-02T08:31:31;70923.59;;;-143.60;29.85
68329;BME280;55182;56.864;60.554;2023-07-02T08:33:57;70945.66;;;-143.60;30.32
68329;BME280;55182;56.864;60.554;2023-07-02T08:36:22;70961.72;;;-143.60;30.26
68329;BME280;55182;56.864;60.554;2023-07-02T08:38:48;70973.75;;;-143.60;30.37
68329;BME280;55182;56.864;60.554;2023-07-02T08:41:13;70981.78;;;-143.60;30.35
68329;BME280;55182;56.864;60.554;2023-07-02T08:43:39;70985.81;;;-143.60;30.79
68329;BME280;55182;56.864;60.554;2023-07-02T08:46:05;71017.91;;;-143.60;30.99
68329;BME280;55182;56.864;60.554;2023-07-02T08:48:30;71021.94;;;-143.60;31.12
68329;BME280;55182;56.864;60.554;2023-07-02T08:50:56;71017.91;;;-143.60;31.14
68329;BME280;55182;56.864;60.554;2023-07-02T08:53:22;71027.94;;;-143.60;31.05
68329;BME280;55182;56.864;60.554;2023-07-02T08:55:47;71070.09;;;-143.60;30.86
68329;BME280;55182;56.864;60.554;2023-07-02T08:58:14;71078.13;;;-143.60;30.73
68329;BME280;55182;56.864;60.554;2023-07-02T09:00:39;71092.16;;;-143.60;31.28
68329;BME280;55182;56.864;60.554;2023-07-02T09:03:14;71114.25;;;-143.60;31.21
68329;BME280;55182;56.864;60.554;2023-07-02T09:05:50;71136.31;;;-143.60;31.74
68329;BME280;55182;56.864;60.554;2023-07-02T09:08:22;71144.34;;;-143.60;32.01
68329;BME280;55182;56.864;60.554;2023-07-02T09:10:48;71148.38;;;-143.60;32.09
68329;BME280;55182;56.864;60.554;2023-07-02T09:13:13;71146.34;;;-143.60;32.11
68329;BME280;55182;56.864;60.554;2023-07-02T09:15:39;71144.34;;;-143.60;32.29
68329;BME280;55182;56.864;60.554;2023-07-02T09:18:17;71144.34;;;-143.60;32.70
68329;BME280;55182;56.864;60.554;2023-07-02T09:20:43;71138.34;;;-143.60;32.99
68329;BME280;55182;56.864;60.554;2023-07-02T09:23:08;71146.34;;;-143.60;33.55
68329;BME280;55182;56.864;60.554;2023-07-02T09:25:36;71152.38;;;-143.60;33.04
68329;BME280;55182;56.864;60.554;2023-07-02T09:28:01;71150.38;;;-143.60;33.52
68329;BME280;55182;56.864;60.554;2023-07-02T09:30:27;71148.38;;;-143.60;33.21
68329;BME280;55182;56.864;60.554;2023-07-02T09:32:52;71154.38;;;-143.60;33.32
68329;BME280;55182;56.864;60.554;2023-07-02T09:35:18;71160.41;;;-143.60;33.90
68329;BME280;55182;56.864;60.554;2023-07-02T09:37:43;71158.41;;;-143.60;33.87
68329;BME280;55182;56.864;60.554;2023-07-02T09:40:09;71162.41;;;-143.60;33.47
68329;BME280;55182;56.864;60.554;2023-07-02T09:42:35;71166.44;;;-143.60;33.49
68329;BME280;55182;56.864;60.554;2023-07-02T09:45:04;71174.47;;;-143.60;33.50
68329;BME280;55182;56.864;60.554;2023-07-02T09:47:31;71180.47;;;-143.60;33.42
68329;BME280;55182;56.864;60.554;2023-07-02T09:49:59;71178.47;;;-143.60;33.10
68329;BME280;55182;56.864;60.554;2023-07-02T09:52:27;71190.50;;;-143.60;33.59
68329;BME280;55182;56.864;60.554;2023-07-02T09:54:53;71176.47;;;-143.60;33.30
68329;BME280;55182;56.864;60.554;2023-07-02T09:57:18;71162.41;;;-143.60;33.55
68329;BME280;55182;56.864;60.554;2023-07-02T09:59:44;71134.31;;;-143.60;33.57
68329;BME280;55182;56.864;60.554;2023-07-02T10:02:10;71122.28;;;-143.60;33.73
68329;BME280;55182;56.864;60.554;2023-07-02T10:04:42;71116.25;;;-143.60;33.01
68329;BME280;55182;56.864;60.554;2023-07-02T10:07:08;71136.31;;;-143.60;33.12
68329;BME280;55182;56.864;60.554;2023-07-02T10:09:40;71160.41;;;-143.60;33.66
68329;BME280;55182;56.864;60.554;2023-07-02T10:14:43;71178.47;;;-143.60;33.61
68329;BME280;55182;56.864;60.554;2023-07-02T10:17:09;71166.44;;;-143.60;33.70
68329;BME280;55182;56.864;60.554;2023-07-02T10:19:34;71174.47;;;-143.60;34.02
68329;BME280;55182;56.864;60.554;2023-07-02T10:22:01;71174.47;;;-143.60;34.16
68329;BME280;55182;56.864;60.554;2023-07-02T10:24:26;71182.50;;;-143.60;34.00
68329;BME280;55182;56.864;60.554;2023-07-02T10:27:01;71162.41;;;-143.60;33.93
68329;BME280;55182;56.864;60.554;2023-07-02T10:29:27;71158.41;;;-143.60;34.24
68329;BME280;55182;56.864;60.554;2023-07-02T10:31:54;71146.34;;;-143.60;34.04
68329;BME280;55182;56.864;60.554;2023-07-02T10:34:35;71138.34;;;-143.60;33.63
68329;BME280;55182;56.864;60.554;2023-07-02T10:37:02;71104.22;;;-143.60;33.81
68329;BME280;55182;56.864;60.554;2023-07-02T10:39:28;71094.19;;;-143.60;33.38
68329;BME280;55182;56.864;60.554;2023-07-02T10:42:02;71102.22;;;-143.60;33.81
68329;BME280;55182;56.864;60.554;2023-07-02T10:44:28;71110.22;;;-143.60;33.37
68329;BME280;55182;56.864;60.554;2023-07-02T10:46:53;71126.28;;;-143.60;33.95
68329;BME280;55182;56.864;60.554;2023-07-02T10:49:19;71138.34;;;-143.60;33.34
68329;BME280;55182;56.864;60.554;2023-07-02T10:51:44;71142.34;;;-143.60;33.66
68329;BME280;55182;56.864;60.554;2023-07-02T10:54:10;71162.41;;;-143.60;33.97
68329;BME280;55182;56.864;60.554;2023-07-02T10:56:35;71162.41;;;-143.60;34.42
68329;BME280;55182;56.864;60.554;2023-07-02T10:59:01;71146.34;;;-143.60;33.81
68329;BME280;55182;56.864;60.554;2023-07-02T11:01:27;71122.28;;;-143.60;34.09
68329;BME280;55182;56.864;60.554;2023-07-02T11:04:03;71124.28;;;-143.60;33.51
68329;BME280;55182;56.864;60.554;2023-07-02T11:06:29;71134.31;;;-143.60;33.54
68329;BME280;55182;56.864;60.554;2023-07-02T11:08:54;71142.34;;;-143.60;33.45
68329;BME280;55182;56.864;60.554;2023-07-02T11:11:20;71150.38;;;-143.60;33.25
68329;BME280;55182;56.864;60.554;2023-07-02T11:13:46;71150.38;;;-143.60;33.02
68329;BME280;55182;56.864;60.554;2023-07-02T11:16:27;71154.38;;;-143.60;32.94
68329;BME280;55182;56.864;60.554;2023-07-02T11:18:54;71154.38;;;-143.60;33.03
68329;BME280;55182;56.864;60.554;2023-07-02T11:21:30;71146.34;;;-143.60;32.86
68329;BME280;55182;56.864;60.554;2023-07-02T11:24:06;71118.25;;;-143.60;33.15
68329;BME280;55182;56.864;60.554;2023-07-02T11:26:40;71098.19;;;-143.60;32.83
68329;BME280;55182;56.864;60.554;2023-07-02T11:29:12;71090.16;;;-143.60;32.56
68329;BME280;55182;56.864;60.554;2023-07-02T11:31:38;71078.13;;;-143.60;32.58
68329;BME280;55182;56.864;60.554;2023-07-02T11:34:15;71074.09;;;-143.60;32.33
68329;BME280;55182;56.864;60.554;2023-07-02T11:36:41;71017.91;;;-143.60;31.90
68329;BME280;55182;56.864;60.554;2023-07-02T11:39:07;70983.78;;;-143.60;31.59
68329;BME280;55182;56.864;60.554;2023-07-02T11:44:04;70941.66;;;-143.60;31.58
68329;BME280;55182;56.864;60.554;2023-07-02T11:46:29;70943.66;;;-143.60;31.48
68329;BME280;55182;56.864;60.554;2023-07-02T11:48:55;70929.63;;;-143.60;31.76
68329;BME280;55182;56.864;60.554;2023-07-02T11:51:21;70909.53;;;-143.60;31.83
68329;BME280;55182;56.864;60.554;2023-07-02T11:53:46;70941.66;;;-143.60;31.92
68329;BME280;55182;56.864;60.554;2023-07-02T11:56:12;70987.81;;;-143.60;32.09
68329;BME280;55182;56.864;60.554;2023-07-02T11:58:37;71033.97;;;-143.60;32.53
68329;BME280;55182;56.864;60.554;2023-07-02T12:01:03;71066.09;;;-143.60;32.86
68329;BME280;55182;56.864;60.554;2023-07-02T12:03:28;71090.16;;;-143.60;33.29
68329;BME280;55182;56.864;60.554;2023-07-02T12:05:54;71122.28;;;-143.60;33.41
68329;BME280;55182;56.864;60.554;2023-07-02T12:08:19;71122.28;;;-143.60;33.57
68329;BME280;55182;56.864;60.554;2023-07-02T12:10:44;71122.28;;;-143.60;33.92
68329;BME280;55182;56.864;60.554;2023-07-02T12:13:10;71122.28;;;-143.60;33.79
68329;BME280;55182;56.864;60.554;2023-07-02T12:15:36;71132.31;;;-143.60;34.02
68329;BME280;55182;56.864;60.554;2023-07-02T12:18:01;71132.31;;;-143.60;34.27
68329;BME280;55182;56.864;60.554;2023-07-02T12:20:26;71146.34;;;-143.60;34.23
68329;BME280;55182;56.864;60.554;2023-07-02T12:22:52;71158.41;;;-143.60;34.01
68329;BME280;55182;56.864;60.554;2023-07-02T12:25:17;71170.44;;;-143.60;33.43
68329;BME280;55182;56.864;60.554;2023-07-02T12:27:43;71178.47;;;-143.60;33.98
68329;BME280;55182;56.864;60.554;2023-07-02T12:30:08;71166.44;;;-143.60;33.98
68329;BME280;55182;56.864;60.554;2023-07-02T12:32:34;71160.41;;;-143.60;33.98